Wetterdaten: Woche 16.03.09 - 22.03.09 (KW12)
Datum Zeit Temp. A. Feuchte A. Luftdruck Regen Wind Richtung Taupunkt Windchill Windben
16.03.2009 00:00 7,4 C 80 % 1026,1 hPa 0,0 l/m 8,9 km/h W-NW 4,2 C 5,5 C 22,5 km/h
16.03.2009 01:00 7,3 C 80 % 1026,3 hPa 0,0 l/m 9,0 km/h NW 4,1 C 5,3 C 19,7 km/h
16.03.2009 02:00 7,4 C 80 % 1026,4 hPa 0,0 l/m 9,1 km/h NW 4,1 C 5,3 C 19,7 km/h
16.03.2009 03:00 7,3 C 79 % 1026,2 hPa 0,0 l/m 10,2 km/h W-NW 3,9 C 4,5 C 23,7 km/h
16.03.2009 04:00 7,3 C 79 % 1026,4 hPa 0,0 l/m 11,1 km/h NW 3,8 C 3,9 C 24,5 km/h
16.03.2009 05:00 7,2 C 79 % 1026,8 hPa 0,0 l/m 9,6 km/h W-NW 3,8 C 4,7 C 21,7 km/h
16.03.2009 06:00 7,1 C 80 % 1027,2 hPa 0,0 l/m 11,7 km/h W-NW 3,8 C 3,4 C 27,0 km/h
16.03.2009 07:00 7,2 C 79 % 1027,3 hPa 0,3 l/m 12,0 km/h NW 3,8 C 3,3 C 27,3 km/h
16.03.2009 08:00 7,8 C 77 % 1027,9 hPa 0,0 l/m 10,4 km/h W 3,9 C 4,9 C 24,1 km/h
16.03.2009 09:00 7,9 C 76 % 1028,6 hPa 0,0 l/m 10,9 km/h NW 3,9 C 4,7 C 23,7 km/h
16.03.2009 10:00 8,2 C 78 % 1028,8 hPa 0,0 l/m 11,3 km/h NW 4,6 C 4,9 C 25,4 km/h
16.03.2009 11:00 9,6 C 72 % 1028,5 hPa 0,0 l/m 12,4 km/h NW 4,7 C 5,9 C 25,8 km/h
16.03.2009 12:00 10,6 C 65 % 1028,3 hPa 0,0 l/m 13,4 km/h W-NW 4,3 C 6,5 C 28,6 km/h
16.03.2009 13:00 10,5 C 64 % 1027,9 hPa 0,0 l/m 12,7 km/h N-NW 3,8 C 6,7 C 27,0 km/h
16.03.2009 14:00 10,4 C 64 % 1028,0 hPa 0,0 l/m 14,1 km/h W-NW 3,8 C 6,0 C 28,1 km/h
16.03.2009 15:00 10,2 C 63 % 1028,1 hPa 0,0 l/m 10,9 km/h NW 3,6 C 7,4 C 23,3 km/h
16.03.2009 16:00 10,3 C 64 % 1028,3 hPa 0,0 l/m 8,6 km/h NO 3,8 C 8,8 C 17,7 km/h
16.03.2009 17:00 9,6 C 66 % 1028,9 hPa 0,0 l/m 8,0 km/h N-NO 3,6 C 8,4 C 17,7 km/h
16.03.2009 18:00 8,8 C 67 % 1029,8 hPa 0,0 l/m 5,5 km/h NO 3,0 C 8,7 C 15,3 km/h
16.03.2009 19:00 7,4 C 68 % 1030,7 hPa 0,0 l/m 8,1 km/h O-NO 1,8 C 6,1 C 16,5 km/h
16.03.2009 20:00 6,3 C 68 % 1031,3 hPa 0,0 l/m 4,6 km/h NO 0,7 C 6,3 C 8,4 km/h
16.03.2009 21:00 5,8 C 68 % 1031,6 hPa 0,0 l/m 3,2 km/h NO 0,4 C 5,8 C 7,6 km/h
16.03.2009 22:00 5,3 C 69 % 1031,8 hPa 0,0 l/m 3,0 km/h N-NW 0,0 C 5,3 C 7,6 km/h
16.03.2009 23:00 5,0 C 68 % 1031,8 hPa 0,0 l/m 1,3 km/h N-NW -0,3 C 5,0 C 5,6 km/h
17.03.2009 00:00 4,5 C 69 % 1031,6 hPa 0,0 l/m 0,5 km/h N -0,7 C 4,5 C 3,6 km/h
17.03.2009 01:00 4,2 C 68 % 1031,7 hPa 0,0 l/m 0,1 km/h N -1,2 C 4,2 C 2,4 km/h
17.03.2009 02:00 2,7 C 72 % 1031,5 hPa 0,0 l/m 0,0 km/h N -1,8 C 2,7 C 0,8 km/h
17.03.2009 03:00 1,6 C 77 % 1031,1 hPa 0,0 l/m 0,6 km/h W-SW -2,0 C 1,6 C 3,6 km/h
17.03.2009 04:00 0,8 C 79 % 1031,2 hPa 0,0 l/m 0,1 km/h N -2,4 C 0,8 C 1,6 km/h
17.03.2009 05:00 -0,1 C 82 % 1031,1 hPa 0,0 l/m 0,1 km/h N -2,9 C -0,1 C 2,0 km/h
17.03.2009 06:00 -0,0 C 85 % 1030,7 hPa 0,0 l/m 0,1 km/h N -2,3 C -0,0 C 2,0 km/h
17.03.2009 07:00 1,5 C 85 % 1030,4 hPa 0,0 l/m 0,1 km/h N -0,9 C 1,5 C 0,8 km/h
17.03.2009 08:00 4,8 C 71 % 1030,2 hPa 0,0 l/m 0,3 km/h N -0,1 C 4,8 C 2,0 km/h
17.03.2009 09:00 6,7 C 70 % 1029,7 hPa 0,0 l/m 0,4 km/h N-NW 1,6 C 6,7 C 3,2 km/h
17.03.2009 10:00 8,5 C 71 % 1029,1 hPa 0,0 l/m 7,2 km/h W-NW 3,5 C 7,9 C 15,7 km/h
17.03.2009 11:00 9,0 C 70 % 1028,6 hPa 0,0 l/m 8,1 km/h W-NW 3,8 C 7,7 C 18,9 km/h
17.03.2009 12:00 8,4 C 76 % 1028,1 hPa 0,0 l/m 8,1 km/h W-NW 4,4 C 7,1 C 20,1 km/h
17.03.2009 13:00 7,8 C 76 % 1027,4 hPa 0,0 l/m 10,3 km/h W 3,9 C 5,1 C 26,2 km/h
17.03.2009 14:00 8,6 C 75 % 1026,7 hPa 0,0 l/m 9,8 km/h W 4,4 C 6,1 C 23,7 km/h
17.03.2009 15:00 9,1 C 71 % 1026,1 hPa 0,0 l/m 10,2 km/h W-NW 4,1 C 6,6 C 28,2 km/h
17.03.2009 16:00 9,3 C 69 % 1025,3 hPa 0,0 l/m 10,2 km/h W 4,0 C 6,7 C 24,1 km/h
17.03.2009 17:00 9,2 C 68 % 1025,2 hPa 0,0 l/m 9,9 km/h W 3,6 C 6,9 C 24,9 km/h
17.03.2009 18:00 9,2 C 68 % 1025,1 hPa 0,0 l/m 8,4 km/h W 3,6 C 7,7 C 20,9 km/h
17.03.2009 19:00 8,8 C 68 % 1024,7 hPa 0,0 l/m 10,5 km/h W-NW 3,2 C 5,9 C 26,6 km/h
17.03.2009 20:00 8,8 C 67 % 1024,2 hPa 0,0 l/m 15,6 km/h NW 2,9 C 3,5 C 31,8 km/h
17.03.2009 21:00 9,1 C 66 % 1023,9 hPa 0,0 l/m 16,4 km/h W-NW 3,1 C 3,5 C 40,6 km/h
17.03.2009 22:00 8,8 C 65 % 1023,5 hPa 0,0 l/m 15,2 km/h W 2,5 C 3,6 C 32,2 km/h
17.03.2009 23:00 8,1 C 66 % 1023,2 hPa 0,6 l/m 13,4 km/h W 2,1 C 3,6 C 35,8 km/h
18.03.2009 00:00 7,7 C 61 % 1023,7 hPa 0,0 l/m 13,4 km/h NW 0,5 C 3,1 C 31,8 km/h
18.03.2009 01:00 6,5 C 62 % 1024,6 hPa 0,0 l/m 16,4 km/h N-NW -0,5 C 0,2 C 37,0 km/h
18.03.2009 02:00 4,4 C 72 % 1024,9 hPa 0,0 l/m 12,2 km/h NW -0,3 C 0,0 C 25,3 km/h
18.03.2009 03:00 4,9 C 61 % 1025,0 hPa 0,0 l/m 14,3 km/h N-NW -1,9 C -0,7 C 27,8 km/h
18.03.2009 04:00 5,1 C 60 % 1025,3 hPa 0,0 l/m 14,2 km/h N-NW -2,1 C -0,4 C 30,6 km/h
18.03.2009 05:00 4,7 C 60 % 1025,3 hPa 0,0 l/m 16,0 km/h NW -2,4 C -1,8 C 36,6 km/h
18.03.2009 06:00 4,3 C 62 % 1025,5 hPa 0,0 l/m 14,4 km/h NW -2,4 C -1,4 C 31,0 km/h
18.03.2009 07:00 4,3 C 61 % 1025,8 hPa 0,0 l/m 15,5 km/h N-NW -2,5 C -2,0 C 32,6 km/h
18.03.2009 08:00 5,0 C 58 % 1026,0 hPa 0,0 l/m 17,3 km/h W-NW -2,5 C -2,0 C 35,8 km/h
18.03.2009 09:00 6,2 C 54 % 1025,9 hPa 0,0 l/m 19,6 km/h NW -2,5 C -1,5 C 40,2 km/h
18.03.2009 10:00 6,5 C 51 % 1025,6 hPa 0,0 l/m 20,7 km/h NW -3,0 C -1,5 C 41,8 km/h
18.03.2009 11:00 7,8 C 43 % 1024,9 hPa 0,0 l/m 20,9 km/h NW -4,0 C 0,1 C 39,8 km/h
18.03.2009 12:00 7,4 C 41 % 1024,4 hPa 0,0 l/m 15,3 km/h W-NW -4,9 C 1,8 C 32,2 km/h
18.03.2009 13:00 7,6 C 40 % 1023,5 hPa 0,0 l/m 15,4 km/h NW -5,1 C 2,0 C 34,6 km/h
18.03.2009 14:00 7,6 C 38 % 1022,8 hPa 0,0 l/m 13,9 km/h NW -5,7 C 2,8 C 30,6 km/h
18.03.2009 15:00 7,6 C 40 % 1022,3 hPa 0,0 l/m 15,2 km/h NW -5,1 C 2,3 C 31,4 km/h
18.03.2009 16:00 7,4 C 43 % 1022,0 hPa 0,0 l/m 16,1 km/h NW -4,5 C 1,6 C 35,4 km/h
18.03.2009 17:00 7,5 C 39 % 1022,0 hPa 0,0 l/m 15,1 km/h NW -5,5 C 2,1 C 31,8 km/h
18.03.2009 18:00 7,3 C 40 % 1022,0 hPa 0,0 l/m 12,9 km/h N-NW -5,3 C 2,9 C 25,8 km/h
18.03.2009 19:00 7,0 C 45 % 1022,3 hPa 0,0 l/m 12,6 km/h NW -4,2 C 2,8 C 27,8 km/h
18.03.2009 20:00 6,4 C 50 % 1022,2 hPa 0,0 l/m 10,4 km/h N-NW -3,4 C 3,3 C 21,7 km/h
18.03.2009 21:00 6,2 C 51 % 1022,3 hPa 0,0 l/m 9,3 km/h W-NW -3,2 C 3,9 C 20,1 km/h
18.03.2009 22:00 6,3 C 55 % 1022,0 hPa 0,0 l/m 11,8 km/h N-NW -2,1 C 2,3 C 25,7 km/h
18.03.2009 23:00 5,6 C 61 % 1022,1 hPa 0,0 l/m 13,1 km/h N-NW -1,4 C 0,9 C 29,0 km/h
19.03.2009 00:00 2,9 C 79 % 1022,7 hPa 0,0 l/m 9,1 km/h N-NW -0,4 C 0,6 C 20,9 km/h
19.03.2009 01:00 2,7 C 82 % 1022,0 hPa 0,0 l/m 2,9 km/h W -0,1 C 2,7 C 8,0 km/h
19.03.2009 02:00 3,5 C 77 % 1021,4 hPa 0,0 l/m 5,2 km/h NW -0,3 C 3,5 C 16,1 km/h
19.03.2009 03:00 2,7 C 81 % 1021,0 hPa 1,2 l/m 6,2 km/h W -0,3 C 2,2 C 15,3 km/h
19.03.2009 04:00 0,9 C 87 % 1021,1 hPa 0,6 l/m 2,2 km/h NO -1,0 C 0,9 C 6,0 km/h
19.03.2009 05:00 0,6 C 89 % 1020,6 hPa 0,0 l/m 0,7 km/h W-SW -1,1 C 0,6 C 3,6 km/h
19.03.2009 06:00 0,8 C 90 % 1020,3 hPa 0,6 l/m 2,9 km/h NW -0,7 C 0,8 C 9,7 km/h
19.03.2009 07:00 0,8 C 90 % 1020,5 hPa 0,6 l/m 3,7 km/h N-NW -0,7 C 0,8 C 9,3 km/h
19.03.2009 08:00 0,6 C 90 % 1020,6 hPa 0,6 l/m 4,3 km/h NO -0,8 C 0,5 C 11,7 km/h
19.03.2009 09:00 0,3 C 90 % 1021,0 hPa 0,6 l/m 2,8 km/h N-NO -1,2 C 0,3 C 8,8 km/h
19.03.2009 10:00 0,3 C 88 % 1020,7 hPa 0,6 l/m 4,0 km/h NW -1,5 C 0,3 C 12,1 km/h
19.03.2009 11:00 1,6 C 79 % 1020,5 hPa 1,2 l/m 5,0 km/h W-NW -1,6 C 1,5 C 14,5 km/h
19.03.2009 12:00 2,0 C 78 % 1020,4 hPa 0,9 l/m 6,8 km/h W-NW -1,5 C 1,3 C 16,1 km/h
19.03.2009 13:00 2,9 C 72 % 1019,9 hPa 0,0 l/m 8,3 km/h NW -1,6 C 1,1 C 19,3 km/h
19.03.2009 14:00 3,7 C 73 % 1019,6 hPa 0,0 l/m 9,7 km/h W-SW -0,7 C 0,9 C 20,5 km/h
19.03.2009 15:00 3,1 C 77 % 1020,1 hPa 0,0 l/m 8,3 km/h N-NO -0,6 C 1,3 C 21,7 km/h
19.03.2009 16:00 2,8 C 78 % 1020,4 hPa 0,3 l/m 9,1 km/h NW -0,6 C 0,4 C 19,3 km/h
19.03.2009 17:00 2,9 C 76 % 1020,8 hPa 0,3 l/m 7,8 km/h NW -1,0 C 1,6 C 18,9 km/h
19.03.2009 18:00 2,1 C 77 % 1021,5 hPa 0,0 l/m 6,6 km/h NW -1,5 C 0,7 C 17,3 km/h
19.03.2009 19:00 1,3 C 77 % 1022,1 hPa 0,0 l/m 5,8 km/h NW -2,4 C 1,3 C 12,1 km/h
19.03.2009 20:00 1,6 C 77 % 1022,5 hPa 0,0 l/m 5,6 km/h NW -2,0 C 1,6 C 13,3 km/h
19.03.2009 21:00 1,3 C 76 % 1022,9 hPa 0,0 l/m 5,1 km/h NW -2,4 C 1,3 C 11,3 km/h
19.03.2009 22:00 1,1 C 74 % 1023,2 hPa 0,0 l/m 3,3 km/h NW -3,0 C 1,1 C 8,4 km/h
19.03.2009 23:00 1,0 C 74 % 1023,4 hPa 0,0 l/m 5,9 km/h NW -3,0 C 0,1 C 13,3 km/h
20.03.2009 00:00 1,0 C 78 % 1023,3 hPa 0,0 l/m 6,2 km/h NW -2,5 C 0,7 C 13,7 km/h
20.03.2009 01:00 1,1 C 75 % 1023,4 hPa 0,0 l/m 7,9 km/h NW -2,8 C -0,4 C 16,1 km/h
20.03.2009 02:00 1,1 C 72 % 1023,6 hPa 0,0 l/m 8,2 km/h N -3,3 C -0,6 C 19,3 km/h
20.03.2009 03:00 1,0 C 73 % 1023,8 hPa 0,0 l/m 7,7 km/h NW -3,2 C -0,2 C 18,9 km/h
20.03.2009 04:00 0,6 C 76 % 1024,0 hPa 0,0 l/m 6,1 km/h N-NW -3,1 C 0,5 C 16,5 km/h
20.03.2009 05:00 0,4 C 77 % 1024,5 hPa 0,0 l/m 5,1 km/h NW -3,2 C 0,4 C 12,5 km/h
20.03.2009 06:00 0,3 C 77 % 1025,1 hPa 0,0 l/m 6,0 km/h NW -3,2 C 0,3 C 14,5 km/h
20.03.2009 07:00 1,0 C 74 % 1025,7 hPa 0,0 l/m 8,3 km/h N-NW -3,2 C -0,8 C 19,3 km/h
20.03.2009 08:00 1,3 C 70 % 1026,5 hPa 0,0 l/m 8,3 km/h NW -3,5 C -0,6 C 18,8 km/h
20.03.2009 09:00 1,9 C 67 % 1026,9 hPa 0,3 l/m 8,0 km/h N-NW -3,6 C 0,4 C 20,1 km/h
20.03.2009 10:00 2,8 C 62 % 1027,3 hPa 0,0 l/m 11,9 km/h N-NO -3,8 C -1,7 C 24,1 km/h
20.03.2009 11:00 2,7 C 62 % 1027,8 hPa 0,0 l/m 10,5 km/h N -3,8 C -0,8 C 22,1 km/h
20.03.2009 12:00 3,3 C 61 % 1027,9 hPa 0,0 l/m 8,4 km/h N-NW -3,4 C 1,6 C 19,7 km/h
20.03.2009 13:00 3,6 C 62 % 1027,7 hPa 0,0 l/m 9,6 km/h N -3,0 C 0,8 C 20,1 km/h
20.03.2009 14:00 3,6 C 60 % 1027,5 hPa 0,0 l/m 11,3 km/h N-NO -3,4 C -0,4 C 23,3 km/h
20.03.2009 15:00 3,6 C 59 % 1027,4 hPa 0,0 l/m 11,3 km/h N-NW -3,6 C -0,4 C 24,5 km/h
20.03.2009 16:00 3,2 C 61 % 1027,5 hPa 0,0 l/m 11,0 km/h N-NO -3,6 C -0,7 C 25,8 km/h
20.03.2009 17:00 2,9 C 63 % 1027,8 hPa 0,0 l/m 8,9 km/h N -3,5 C 0,7 C 20,1 km/h
20.03.2009 18:00 2,7 C 65 % 1028,2 hPa 0,0 l/m 8,4 km/h NW -3,3 C 0,8 C 20,9 km/h
20.03.2009 19:00 2,3 C 65 % 1028,5 hPa 0,0 l/m 8,2 km/h N-NW -3,5 C 0,7 C 20,1 km/h
20.03.2009 20:00 2,1 C 66 % 1028,6 hPa 0,0 l/m 7,3 km/h NW -3,6 C 1,3 C 16,5 km/h
20.03.2009 21:00 1,8 C 67 % 1028,6 hPa 0,0 l/m 6,8 km/h NW -3,8 C 1,2 C 15,7 km/h
20.03.2009 22:00 1,6 C 67 % 1028,5 hPa 0,0 l/m 6,8 km/h NW -3,8 C 0,9 C 14,9 km/h
20.03.2009 23:00 1,3 C 69 % 1028,4 hPa 0,0 l/m 6,7 km/h N-NW -3,7 C 0,9 C 13,7 km/h
21.03.2009 00:00 1,2 C 71 % 1028,2 hPa 0,0 l/m 6,3 km/h N-NW -3,5 C 1,1 C 12,5 km/h
21.03.2009 01:00 1,0 C 73 % 1028,0 hPa 0,0 l/m 5,7 km/h NW -3,3 C 1,0 C 12,9 km/h
21.03.2009 02:00 0,9 C 75 % 1027,6 hPa 0,0 l/m 7,0 km/h NW -3,1 C 0,3 C 14,1 km/h
21.03.2009 03:00 0,8 C 76 % 1027,2 hPa 0,0 l/m 6,5 km/h N -3,0 C 0,6 C 15,7 km/h
21.03.2009 04:00 0,8 C 76 % 1027,3 hPa 0,0 l/m 6,0 km/h NW -2,9 C 0,7 C 12,5 km/h
21.03.2009 05:00 0,4 C 77 % 1027,4 hPa 0,0 l/m 5,2 km/h NW -3,1 C 0,4 C 12,1 km/h
21.03.2009 06:00 0,5 C 76 % 1027,7 hPa 0,0 l/m 6,5 km/h N-NW -3,2 C -0,2 C 15,3 km/h
21.03.2009 07:00 1,0 C 72 % 1028,0 hPa 0,0 l/m 7,2 km/h N-NO -3,5 C 0,2 C 18,5 km/h
21.03.2009 08:00 1,8 C 68 % 1028,1 hPa 0,0 l/m 8,6 km/h NO -3,5 C -0,3 C 20,1 km/h
21.03.2009 09:00 2,9 C 62 % 1027,9 hPa 0,0 l/m 8,3 km/h NO -3,6 C 1,2 C 20,9 km/h
21.03.2009 10:00 3,8 C 56 % 1027,4 hPa 0,0 l/m 7,9 km/h N -4,2 C 2,3 C 16,5 km/h
21.03.2009 11:00 4,2 C 53 % 1027,2 hPa 0,0 l/m 10,4 km/h NW -4,5 C 0,9 C 22,1 km/h
21.03.2009 12:00 3,8 C 53 % 1027,1 hPa 0,0 l/m 9,4 km/h N-NW -5,0 C 1,3 C 20,5 km/h
21.03.2009 13:00 4,4 C 50 % 1026,5 hPa 0,0 l/m 10,8 km/h NW -5,1 C 0,9 C 22,1 km/h
21.03.2009 14:00 4,5 C 50 % 1025,9 hPa 0,0 l/m 11,6 km/h NW -5,1 C 0,5 C 22,1 km/h
21.03.2009 15:00 4,9 C 48 % 1025,4 hPa 0,0 l/m 13,8 km/h NW -5,2 C -0,3 C 26,9 km/h
21.03.2009 16:00 4,7 C 50 % 1024,9 hPa 0,0 l/m 10,9 km/h W-NW -5,0 C 1,1 C 22,5 km/h
21.03.2009 17:00 4,0 C 52 % 1024,9 hPa 0,0 l/m 8,3 km/h N-NW -4,9 C 2,3 C 18,5 km/h
21.03.2009 18:00 3,1 C 54 % 1024,9 hPa 0,0 l/m 7,9 km/h NW -5,2 C 1,7 C 18,1 km/h
21.03.2009 19:00 2,4 C 56 % 1025,3 hPa 0,0 l/m 5,8 km/h NW -5,5 C 2,2 C 14,5 km/h
21.03.2009 20:00 1,8 C 58 % 1025,4 hPa 0,0 l/m 4,0 km/h NW -5,6 C 1,8 C 10,5 km/h
21.03.2009 21:00 1,4 C 63 % 1025,0 hPa 0,0 l/m 5,1 km/h NW -4,9 C 1,4 C 12,5 km/h
21.03.2009 22:00 1,9 C 63 % 1024,6 hPa 0,0 l/m 6,6 km/h NW -4,5 C 1,5 C 17,3 km/h
21.03.2009 23:00 2,1 C 59 % 1024,2 hPa 0,0 l/m 7,0 km/h NO -5,1 C 1,5 C 18,9 km/h
22.03.2009 00:00 2,3 C 57 % 1023,8 hPa 0,0 l/m 9,4 km/h W-NW -5,4 C -0,4 C 23,7 km/h
22.03.2009 01:00 2,3 C 55 % 1023,2 hPa 0,0 l/m 10,0 km/h W-NW -5,7 C -0,8 C 23,7 km/h
22.03.2009 02:00 2,4 C 54 % 1022,4 hPa 0,0 l/m 11,3 km/h W-NW -5,9 C -1,7 C 28,2 km/h
22.03.2009 03:00 2,4 C 53 % 1021,8 hPa 0,0 l/m 13,1 km/h W-NW -6,1 C -3,0 C 30,2 km/h
22.03.2009 04:00 2,3 C 54 % 1021,1 hPa 0,0 l/m 11,9 km/h NW -6,2 C -2,3 C 28,6 km/h
22.03.2009 05:00 2,3 C 53 % 1020,3 hPa 0,0 l/m 14,0 km/h W-NW -6,3 C -3,6 C 31,8 km/h
22.03.2009 06:00 2,8 C 51 % 1020,2 hPa 0,0 l/m 15,6 km/h W -6,3 C -3,9 C 31,8 km/h
22.03.2009 07:00 3,6 C 49 % 1019,8 hPa 0,0 l/m 17,3 km/h W-NW -6,0 C -3,8 C 40,2 km/h
22.03.2009 08:00 4,4 C 48 % 1019,5 hPa 0,0 l/m 20,6 km/h W-NW -5,7 C -4,2 C 45,1 km/h
22.03.2009 09:00 5,6 C 45 % 1019,3 hPa 0,0 l/m 20,1 km/h W-NW -5,5 C -2,4 C 46,3 km/h
22.03.2009 10:00 6,9 C 43 % 1018,3 hPa 0,0 l/m 19,4 km/h W -4,9 C -0,5 C 41,8 km/h
22.03.2009 11:00 7,9 C 41 % 1017,5 hPa 0,0 l/m 19,4 km/h W -4,4 C 0,9 C 40,6 km/h
22.03.2009 12:00 8,4 C 42 % 1017,0 hPa 0,0 l/m 20,3 km/h W -3,8 C 1,1 C 45,5 km/h
22.03.2009 13:00 9,1 C 43 % 1016,0 hPa 0,0 l/m 18,9 km/h W -3,0 C 2,5 C 40,7 km/h
22.03.2009 14:00 9,8 C 43 % 1015,1 hPa 0,0 l/m 18,4 km/h NW -2,3 C 3,7 C 41,5 km/h
22.03.2009 15:00 9,8 C 42 % 1014,7 hPa 0,0 l/m 18,7 km/h W-NW -2,5 C 3,4 C 41,5 km/h
22.03.2009 16:00 9,0 C 45 % 1014,9 hPa 0,0 l/m 16,5 km/h W-NW -2,3 C 3,5 C 39,9 km/h
22.03.2009 17:00 8,8 C 46 % 1015,1 hPa 0,0 l/m 10,6 km/h W-SW -2,2 C 5,9 C 24,1 km/h
22.03.2009 18:00 8,4 C 47 % 1015,5 hPa 0,0 l/m 13,9 km/h NW -2,3 C 3,8 C 30,6 km/h
22.03.2009 19:00 7,9 C 53 % 1016,4 hPa 0,0 l/m 15,5 km/h W-NW -1,1 C 2,4 C 31,4 km/h
22.03.2009 20:00 7,5 C 51 % 1016,4 hPa 0,0 l/m 15,0 km/h W-NW -1,9 C 2,2 C 29,4 km/h
22.03.2009 21:00 7,6 C 51 % 1015,9 hPa 0,0 l/m 16,3 km/h W-NW -1,8 C 1,7 C 37,4 km/h
22.03.2009 22:00 7,3 C 55 % 1016,1 hPa 0,0 l/m 18,8 km/h W -1,1 C 0,3 C 39,0 km/h
22.03.2009 23:00 7,1 C 57 % 1015,8 hPa 0,0 l/m 18,2 km/h W -0,9 C 0,3 C 38,6 km/h
Min-Datum _ 17.03.09 18.03.09 22.03.09 - 17.03.09 - 22.03.09 22.03.09 17.03.09
_ Min-Zeit 05:30 14:00 15:30 - 01:30 - 05:45 08:00 02:00
Minimum _ -0,2 C 38 % 1014,4 hPa - 0,0 km/h - -6,4 C -5,0 C 0,0 km/h
Max-Datum _ 16.03.09 19.03.09 16.03.09 19.03.09 18.03.09 - 16.03.09 16.03.09 22.03.09
_ Max-Zeit 12:45 06:00 23:00 03:15 09:00 - 11:30 16:45 08:15
Maximum _ 11,1 C 90 % 1032,0 hPa 1,2 l/m 23,7 km/h
NW
- 4,9 C 10,1 C 51,5 km/h
W
Durchschnitt _ 4,7 C 65 % 1024,7 hPa #8,7 l/m 9,7 km/h NW -1,6 C 2,0 C 21,9 km/h